sensor_id;sensor_type;location;lat;lon;timestamp;P1;durP1;ratioP1;P2;durP2;ratioP2
8009;SDS011;4050;51.160;6.938;2022-07-23T00:00:34;16.10;;;9.63;;
8009;SDS011;4050;51.160;6.938;2022-07-23T00:03:04;14.47;;;8.13;;
8009;SDS011;4050;51.160;6.938;2022-07-23T00:05:32;16.47;;;9.40;;
8009;SDS011;4050;51.160;6.938;2022-07-23T00:08:02;13.73;;;8.23;;
8009;SDS011;4050;51.160;6.938;2022-07-23T00:10:36;13.13;;;7.83;;
8009;SDS011;4050;51.160;6.938;2022-07-23T00:13:04;15.40;;;8.43;;
8009;SDS011;4050;51.160;6.938;2022-07-23T00:15:32;12.87;;;7.97;;
8009;SDS011;4050;51.160;6.938;2022-07-23T00:18:00;11.87;;;7.80;;
8009;SDS011;4050;51.160;6.938;2022-07-23T00:20:28;15.07;;;8.53;;
8009;SDS011;4050;51.160;6.938;2022-07-23T00:22:55;16.63;;;9.67;;
8009;SDS011;4050;51.160;6.938;2022-07-23T00:25:24;14.83;;;8.70;;
8009;SDS011;4050;51.160;6.938;2022-07-23T00:27:56;21.10;;;9.13;;
8009;SDS011;4050;51.160;6.938;2022-07-23T00:30:24;15.77;;;8.93;;
8009;SDS011;4050;51.160;6.938;2022-07-23T00:32:52;15.87;;;9.47;;
8009;SDS011;4050;51.160;6.938;2022-07-23T00:35:23;21.60;;;9.33;;
8009;SDS011;4050;51.160;6.938;2022-07-23T00:37:52;17.63;;;9.60;;
8009;SDS011;4050;51.160;6.938;2022-07-23T00:40:20;15.30;;;10.03;;
8009;SDS011;4050;51.160;6.938;2022-07-23T00:42:48;16.33;;;8.60;;
8009;SDS011;4050;51.160;6.938;2022-07-23T00:45:17;19.03;;;9.50;;
8009;SDS011;4050;51.160;6.938;2022-07-23T00:47:45;18.33;;;9.67;;
8009;SDS011;4050;51.160;6.938;2022-07-23T00:50:14;19.30;;;9.90;;
8009;SDS011;4050;51.160;6.938;2022-07-23T00:52:42;13.83;;;8.87;;
8009;SDS011;4050;51.160;6.938;2022-07-23T00:55:10;17.13;;;9.67;;
8009;SDS011;4050;51.160;6.938;2022-07-23T00:57:39;21.77;;;9.97;;
8009;SDS011;4050;51.160;6.938;2022-07-23T01:00:09;17.17;;;9.33;;
8009;SDS011;4050;51.160;6.938;2022-07-23T01:02:40;19.37;;;10.20;;
8009;SDS011;4050;51.160;6.938;2022-07-23T01:05:09;17.13;;;10.03;;
8009;SDS011;4050;51.160;6.938;2022-07-23T01:07:37;20.57;;;10.70;;
8009;SDS011;4050;51.160;6.938;2022-07-23T01:10:05;20.87;;;11.07;;
8009;SDS011;4050;51.160;6.938;2022-07-23T01:12:55;18.27;;;9.43;;
8009;SDS011;4050;51.160;6.938;2022-07-23T01:15:23;17.67;;;9.03;;
8009;SDS011;4050;51.160;6.938;2022-07-23T01:17:52;24.03;;;10.43;;
8009;SDS011;4050;51.160;6.938;2022-07-23T01:20:20;14.60;;;9.03;;
8009;SDS011;4050;51.160;6.938;2022-07-23T01:22:50;19.63;;;9.40;;
8009;SDS011;4050;51.160;6.938;2022-07-23T01:25:19;16.07;;;9.47;;
8009;SDS011;4050;51.160;6.938;2022-07-23T01:27:47;14.13;;;8.63;;
8009;SDS011;4050;51.160;6.938;2022-07-23T01:30:16;20.50;;;9.53;;
8009;SDS011;4050;51.160;6.938;2022-07-23T01:32:44;14.17;;;9.03;;
8009;SDS011;4050;51.160;6.938;2022-07-23T01:35:12;17.77;;;9.93;;
8009;SDS011;4050;51.160;6.938;2022-07-23T01:37:40;15.77;;;9.13;;
8009;SDS011;4050;51.160;6.938;2022-07-23T01:40:09;15.63;;;8.30;;
8009;SDS011;4050;51.160;6.938;2022-07-23T01:42:37;18.17;;;9.17;;
8009;SDS011;4050;51.160;6.938;2022-07-23T01:45:06;19.63;;;10.13;;
8009;SDS011;4050;51.160;6.938;2022-07-23T01:47:35;22.97;;;11.03;;
8009;SDS011;4050;51.160;6.938;2022-07-23T01:50:03;19.80;;;9.13;;
8009;SDS011;4050;51.160;6.938;2022-07-23T01:52:31;15.30;;;8.77;;
8009;SDS011;4050;51.160;6.938;2022-07-23T01:54:59;18.20;;;8.17;;
8009;SDS011;4050;51.160;6.938;2022-07-23T01:57:28;16.80;;;9.20;;
8009;SDS011;4050;51.160;6.938;2022-07-23T01:59:57;13.10;;;8.17;;
8009;SDS011;4050;51.160;6.938;2022-07-23T02:02:25;15.63;;;9.40;;
8009;SDS011;4050;51.160;6.938;2022-07-23T02:04:53;18.40;;;9.43;;
8009;SDS011;4050;51.160;6.938;2022-07-23T02:07:21;18.13;;;9.30;;
8009;SDS011;4050;51.160;6.938;2022-07-23T02:09:49;15.13;;;9.13;;
8009;SDS011;4050;51.160;6.938;2022-07-23T02:12:16;15.70;;;10.10;;
8009;SDS011;4050;51.160;6.938;2022-07-23T02:14:46;17.73;;;10.13;;
8009;SDS011;4050;51.160;6.938;2022-07-23T02:17:14;18.40;;;10.10;;
8009;SDS011;4050;51.160;6.938;2022-07-23T02:19:42;16.67;;;9.03;;
8009;SDS011;4050;51.160;6.938;2022-07-23T02:22:09;16.37;;;9.97;;
8009;SDS011;4050;51.160;6.938;2022-07-23T02:24:37;18.87;;;9.90;;
8009;SDS011;4050;51.160;6.938;2022-07-23T02:27:05;20.27;;;8.73;;
8009;SDS011;4050;51.160;6.938;2022-07-23T02:29:33;22.23;;;9.97;;
8009;SDS011;4050;51.160;6.938;2022-07-23T02:32:02;21.37;;;10.43;;
8009;SDS011;4050;51.160;6.938;2022-07-23T02:34:33;22.63;;;9.13;;
8009;SDS011;4050;51.160;6.938;2022-07-23T02:37:01;17.30;;;10.30;;
8009;SDS011;4050;51.160;6.938;2022-07-23T02:39:28;19.23;;;10.37;;
8009;SDS011;4050;51.160;6.938;2022-07-23T02:41:56;24.43;;;11.17;;
8009;SDS011;4050;51.160;6.938;2022-07-23T02:44:24;18.07;;;9.80;;
8009;SDS011;4050;51.160;6.938;2022-07-23T02:46:52;19.30;;;10.83;;
8009;SDS011;4050;51.160;6.938;2022-07-23T02:49:21;21.57;;;10.77;;
8009;SDS011;4050;51.160;6.938;2022-07-23T02:51:50;19.20;;;10.07;;
8009;SDS011;4050;51.160;6.938;2022-07-23T02:54:19;23.33;;;10.57;;
8009;SDS011;4050;51.160;6.938;2022-07-23T02:56:47;19.83;;;9.77;;
8009;SDS011;4050;51.160;6.938;2022-07-23T02:59:16;19.00;;;10.77;;
8009;SDS011;4050;51.160;6.938;2022-07-23T03:01:45;23.20;;;10.70;;
8009;SDS011;4050;51.160;6.938;2022-07-23T03:04:13;20.13;;;10.37;;
8009;SDS011;4050;51.160;6.938;2022-07-23T03:06:42;21.17;;;9.70;;
8009;SDS011;4050;51.160;6.938;2022-07-23T03:09:10;21.63;;;10.00;;
8009;SDS011;4050;51.160;6.938;2022-07-23T03:11:38;21.63;;;10.80;;
8009;SDS011;4050;51.160;6.938;2022-07-23T03:14:06;25.17;;;10.57;;
8009;SDS011;4050;51.160;6.938;2022-07-23T03:16:34;16.43;;;9.93;;
8009;SDS011;4050;51.160;6.938;2022-07-23T03:19:02;23.03;;;9.97;;
8009;SDS011;4050;51.160;6.938;2022-07-23T03:21:32;23.93;;;10.97;;
8009;SDS011;4050;51.160;6.938;2022-07-23T03:24:01;15.37;;;8.67;;
8009;SDS011;4050;51.160;6.938;2022-07-23T03:26:29;23.13;;;10.67;;
8009;SDS011;4050;51.160;6.938;2022-07-23T03:28:57;24.00;;;11.30;;
8009;SDS011;4050;51.160;6.938;2022-07-23T03:31:28;19.23;;;10.57;;
8009;SDS011;4050;51.160;6.938;2022-07-23T03:33:56;18.73;;;9.93;;
8009;SDS011;4050;51.160;6.938;2022-07-23T03:36:24;20.63;;;10.57;;
8009;SDS011;4050;51.160;6.938;2022-07-23T03:38:52;21.23;;;10.87;;
8009;SDS011;4050;51.160;6.938;2022-07-23T03:41:22;23.23;;;11.50;;
8009;SDS011;4050;51.160;6.938;2022-07-23T03:43:50;19.37;;;10.33;;
8009;SDS011;4050;51.160;6.938;2022-07-23T03:46:18;23.37;;;11.60;;
8009;SDS011;4050;51.160;6.938;2022-07-23T03:48:46;21.80;;;10.23;;
8009;SDS011;4050;51.160;6.938;2022-07-23T03:51:14;21.63;;;11.17;;
8009;SDS011;4050;51.160;6.938;2022-07-23T03:53:41;27.23;;;11.50;;
8009;SDS011;4050;51.160;6.938;2022-07-23T03:56:09;24.90;;;12.57;;
8009;SDS011;4050;51.160;6.938;2022-07-23T03:58:39;24.40;;;11.87;;
8009;SDS011;4050;51.160;6.938;2022-07-23T04:01:06;21.83;;;11.50;;
8009;SDS011;4050;51.160;6.938;2022-07-23T04:03:34;27.43;;;11.40;;
8009;SDS011;4050;51.160;6.938;2022-07-23T04:06:02;27.57;;;11.60;;
8009;SDS011;4050;51.160;6.938;2022-07-23T04:08:30;26.30;;;11.97;;
8009;SDS011;4050;51.160;6.938;2022-07-23T04:10:58;27.73;;;11.73;;
8009;SDS011;4050;51.160;6.938;2022-07-23T04:13:26;26.37;;;10.67;;
8009;SDS011;4050;51.160;6.938;2022-07-23T04:15:55;26.10;;;12.60;;
8009;SDS011;4050;51.160;6.938;2022-07-23T04:18:23;30.23;;;12.33;;
8009;SDS011;4050;51.160;6.938;2022-07-23T04:20:51;26.93;;;11.67;;
8009;SDS011;4050;51.160;6.938;2022-07-23T04:23:19;29.00;;;13.00;;
8009;SDS011;4050;51.160;6.938;2022-07-23T04:25:48;28.43;;;12.30;;
8009;SDS011;4050;51.160;6.938;2022-07-23T04:28:16;23.97;;;12.50;;
8009;SDS011;4050;51.160;6.938;2022-07-23T04:30:43;25.83;;;13.20;;
8009;SDS011;4050;51.160;6.938;2022-07-23T04:33:13;27.03;;;12.67;;
8009;SDS011;4050;51.160;6.938;2022-07-23T04:35:41;26.63;;;12.97;;
8009;SDS011;4050;51.160;6.938;2022-07-23T04:38:09;26.30;;;12.37;;
8009;SDS011;4050;51.160;6.938;2022-07-23T04:40:36;23.73;;;12.03;;
8009;SDS011;4050;51.160;6.938;2022-07-23T04:43:04;20.30;;;10.73;;
8009;SDS011;4050;51.160;6.938;2022-07-23T04:45:32;17.87;;;9.53;;
8009;SDS011;4050;51.160;6.938;2022-07-23T04:48:00;17.77;;;9.97;;
8009;SDS011;4050;51.160;6.938;2022-07-23T04:50:29;18.60;;;9.77;;
8009;SDS011;4050;51.160;6.938;2022-07-23T04:52:57;13.07;;;8.50;;
8009;SDS011;4050;51.160;6.938;2022-07-23T04:55:25;9.27;;;5.83;;
8009;SDS011;4050;51.160;6.938;2022-07-23T04:57:53;11.57;;;7.70;;
8009;SDS011;4050;51.160;6.938;2022-07-23T05:00:21;12.33;;;6.90;;
8009;SDS011;4050;51.160;6.938;2022-07-23T05:02:49;8.80;;;6.50;;
8009;SDS011;4050;51.160;6.938;2022-07-23T05:05:17;11.93;;;6.97;;
8009;SDS011;4050;51.160;6.938;2022-07-23T05:07:46;9.57;;;5.47;;
8009;SDS011;4050;51.160;6.938;2022-07-23T05:10:14;10.57;;;6.83;;
8009;SDS011;4050;51.160;6.938;2022-07-23T05:12:42;10.87;;;6.87;;
8009;SDS011;4050;51.160;6.938;2022-07-23T05:15:10;9.77;;;5.83;;
8009;SDS011;4050;51.160;6.938;2022-07-23T05:17:38;12.23;;;6.70;;
8009;SDS011;4050;51.160;6.938;2022-07-23T05:20:06;9.77;;;6.00;;
8009;SDS011;4050;51.160;6.938;2022-07-23T05:22:34;9.43;;;5.80;;
8009;SDS011;4050;51.160;6.938;2022-07-23T05:25:04;11.17;;;5.53;;
8009;SDS011;4050;51.160;6.938;2022-07-23T05:27:32;10.13;;;5.83;;
8009;SDS011;4050;51.160;6.938;2022-07-23T05:30:00;10.00;;;5.77;;
8009;SDS011;4050;51.160;6.938;2022-07-23T05:32:28;8.70;;;5.20;;
8009;SDS011;4050;51.160;6.938;2022-07-23T05:34:58;8.43;;;5.33;;
8009;SDS011;4050;51.160;6.938;2022-07-23T05:37:26;9.80;;;5.37;;
8009;SDS011;4050;51.160;6.938;2022-07-23T05:39:54;8.53;;;6.07;;
8009;SDS011;4050;51.160;6.938;2022-07-23T05:42:23;8.50;;;5.67;;
8009;SDS011;4050;51.160;6.938;2022-07-23T05:44:51;8.47;;;5.30;;
8009;SDS011;4050;51.160;6.938;2022-07-23T05:47:19;9.53;;;5.63;;
8009;SDS011;4050;51.160;6.938;2022-07-23T05:49:47;9.33;;;5.67;;
8009;SDS011;4050;51.160;6.938;2022-07-23T05:52:15;9.23;;;5.90;;
8009;SDS011;4050;51.160;6.938;2022-07-23T05:54:43;9.17;;;5.20;;
8009;SDS011;4050;51.160;6.938;2022-07-23T05:57:10;8.70;;;5.00;;
8009;SDS011;4050;51.160;6.938;2022-07-23T05:59:40;8.27;;;5.23;;
8009;SDS011;4050;51.160;6.938;2022-07-23T06:02:08;6.47;;;4.57;;
8009;SDS011;4050;51.160;6.938;2022-07-23T06:04:35;10.37;;;6.20;;
8009;SDS011;4050;51.160;6.938;2022-07-23T06:07:03;8.33;;;5.07;;
8009;SDS011;4050;51.160;6.938;2022-07-23T06:09:31;7.80;;;5.10;;
8009;SDS011;4050;51.160;6.938;2022-07-23T06:11:59;10.13;;;5.30;;
8009;SDS011;4050;51.160;6.938;2022-07-23T06:14:27;7.30;;;4.53;;
8009;SDS011;4050;51.160;6.938;2022-07-23T06:16:56;7.80;;;5.23;;
8009;SDS011;4050;51.160;6.938;2022-07-23T06:19:25;6.00;;;4.80;;
8009;SDS011;4050;51.160;6.938;2022-07-23T06:21:53;11.33;;;5.27;;
8009;SDS011;4050;51.160;6.938;2022-07-23T06:24:21;7.43;;;4.57;;
8009;SDS011;4050;51.160;6.938;2022-07-23T06:26:49;6.50;;;4.43;;
8009;SDS011;4050;51.160;6.938;2022-07-23T06:29:17;4.35;;;3.67;;
8009;SDS011;4050;51.160;6.938;2022-07-23T06:31:45;7.32;;;4.30;;
8009;SDS011;4050;51.160;6.938;2022-07-23T06:34:14;6.22;;;4.43;;
8009;SDS011;4050;51.160;6.938;2022-07-23T06:36:42;6.32;;;3.95;;
8009;SDS011;4050;51.160;6.938;2022-07-23T06:39:11;6.55;;;3.50;;
8009;SDS011;4050;51.160;6.938;2022-07-23T06:41:39;6.97;;;4.18;;
8009;SDS011;4050;51.160;6.938;2022-07-23T06:44:06;5.07;;;3.63;;
8009;SDS011;4050;51.160;6.938;2022-07-23T06:46:34;6.88;;;4.10;;
8009;SDS011;4050;51.160;6.938;2022-07-23T06:49:02;5.03;;;3.67;;
8009;SDS011;4050;51.160;6.938;2022-07-23T06:51:34;7.35;;;3.55;;
8009;SDS011;4050;51.160;6.938;2022-07-23T06:54:02;4.55;;;3.30;;
8009;SDS011;4050;51.160;6.938;2022-07-23T06:56:30;4.07;;;3.00;;
8009;SDS011;4050;51.160;6.938;2022-07-23T06:58:58;5.97;;;3.33;;
8009;SDS011;4050;51.160;6.938;2022-07-23T07:01:26;3.75;;;3.30;;
8009;SDS011;4050;51.160;6.938;2022-07-23T07:03:54;4.30;;;3.13;;
8009;SDS011;4050;51.160;6.938;2022-07-23T07:06:22;4.80;;;3.33;;
8009;SDS011;4050;51.160;6.938;2022-07-23T07:08:51;3.55;;;2.92;;
8009;SDS011;4050;51.160;6.938;2022-07-23T07:11:19;3.83;;;3.10;;
8009;SDS011;4050;51.160;6.938;2022-07-23T07:13:47;5.63;;;3.13;;
8009;SDS011;4050;51.160;6.938;2022-07-23T07:16:15;4.47;;;3.15;;
8009;SDS011;4050;51.160;6.938;2022-07-23T07:18:43;3.75;;;2.72;;
8009;SDS011;4050;51.160;6.938;2022-07-23T07:21:11;4.45;;;3.08;;
8009;SDS011;4050;51.160;6.938;2022-07-23T07:23:39;3.38;;;3.00;;
8009;SDS011;4050;51.160;6.938;2022-07-23T07:26:08;3.33;;;3.00;;
8009;SDS011;4050;51.160;6.938;2022-07-23T07:28:36;4.57;;;3.22;;
8009;SDS011;4050;51.160;6.938;2022-07-23T07:31:04;4.75;;;3.30;;
8009;SDS011;4050;51.160;6.938;2022-07-23T07:33:32;5.43;;;3.40;;
8009;SDS011;4050;51.160;6.938;2022-07-23T07:36:00;6.45;;;3.00;;
8009;SDS011;4050;51.160;6.938;2022-07-23T07:38:28;4.32;;;3.20;;
8009;SDS011;4050;51.160;6.938;2022-07-23T07:40:56;3.35;;;2.63;;
8009;SDS011;4050;51.160;6.938;2022-07-23T07:43:25;3.78;;;3.03;;
8009;SDS011;4050;51.160;6.938;2022-07-23T07:45:55;3.72;;;2.83;;
8009;SDS011;4050;51.160;6.938;2022-07-23T07:48:22;5.20;;;3.30;;
8009;SDS011;4050;51.160;6.938;2022-07-23T07:50:54;6.03;;;3.30;;
8009;SDS011;4050;51.160;6.938;2022-07-23T07:53:25;4.05;;;3.10;;
8009;SDS011;4050;51.160;6.938;2022-07-23T07:55:54;4.18;;;3.13;;
8009;SDS011;4050;51.160;6.938;2022-07-23T07:58:26;5.88;;;3.72;;
8009;SDS011;4050;51.160;6.938;2022-07-23T08:00:55;3.90;;;3.10;;
8009;SDS011;4050;51.160;6.938;2022-07-23T08:03:23;4.65;;;2.95;;
8009;SDS011;4050;51.160;6.938;2022-07-23T08:05:51;6.60;;;4.22;;
8009;SDS011;4050;51.160;6.938;2022-07-23T08:08:19;6.53;;;4.35;;
8009;SDS011;4050;51.160;6.938;2022-07-23T08:10:47;5.97;;;4.45;;
8009;SDS011;4050;51.160;6.938;2022-07-23T08:13:15;5.88;;;3.80;;
8009;SDS011;4050;51.160;6.938;2022-07-23T08:15:45;6.32;;;3.72;;
8009;SDS011;4050;51.160;6.938;2022-07-23T08:18:13;8.32;;;3.35;;
8009;SDS011;4050;51.160;6.938;2022-07-23T08:20:41;3.47;;;2.80;;
8009;SDS011;4050;51.160;6.938;2022-07-23T08:23:09;4.55;;;3.20;;
8009;SDS011;4050;51.160;6.938;2022-07-23T08:25:39;4.45;;;3.47;;
8009;SDS011;4050;51.160;6.938;2022-07-23T08:28:09;7.10;;;3.53;;
8009;SDS011;4050;51.160;6.938;2022-07-23T08:30:39;6.78;;;3.90;;
8009;SDS011;4050;51.160;6.938;2022-07-23T08:33:10;3.85;;;2.95;;
8009;SDS011;4050;51.160;6.938;2022-07-23T08:35:56;6.25;;;3.40;;
8009;SDS011;4050;51.160;6.938;2022-07-23T08:38:25;4.72;;;3.42;;
8009;SDS011;4050;51.160;6.938;2022-07-23T08:40:55;5.53;;;3.92;;
8009;SDS011;4050;51.160;6.938;2022-07-23T08:43:29;5.53;;;3.80;;
8009;SDS011;4050;51.160;6.938;2022-07-23T08:45:59;4.13;;;3.30;;
8009;SDS011;4050;51.160;6.938;2022-07-23T08:48:30;3.90;;;3.30;;
8009;SDS011;4050;51.160;6.938;2022-07-23T08:51:00;3.78;;;3.17;;
8009;SDS011;4050;51.160;6.938;2022-07-23T08:53:30;4.25;;;3.33;;
8009;SDS011;4050;51.160;6.938;2022-07-23T08:56:04;4.57;;;3.53;;
8009;SDS011;4050;51.160;6.938;2022-07-23T08:58:35;4.05;;;3.17;;
8009;SDS011;4050;51.160;6.938;2022-07-23T09:01:03;4.10;;;3.58;;
8009;SDS011;4050;51.160;6.938;2022-07-23T09:03:33;5.38;;;3.78;;
8009;SDS011;4050;51.160;6.938;2022-07-23T09:06:03;3.75;;;3.38;;
8009;SDS011;4050;51.160;6.938;2022-07-23T09:08:35;5.30;;;4.45;;
8009;SDS011;4050;51.160;6.938;2022-07-23T09:11:06;5.57;;;4.20;;
8009;SDS011;4050;51.160;6.938;2022-07-23T09:13:36;4.57;;;3.35;;
8009;SDS011;4050;51.160;6.938;2022-07-23T09:16:07;6.72;;;4.00;;
8009;SDS011;4050;51.160;6.938;2022-07-23T09:18:41;4.05;;;3.42;;
8009;SDS011;4050;51.160;6.938;2022-07-23T09:21:15;4.07;;;3.20;;
8009;SDS011;4050;51.160;6.938;2022-07-23T09:23:46;3.60;;;3.30;;
8009;SDS011;4050;51.160;6.938;2022-07-23T09:26:17;5.30;;;3.15;;
8009;SDS011;4050;51.160;6.938;2022-07-23T09:28:54;3.65;;;3.35;;
8009;SDS011;4050;51.160;6.938;2022-07-23T09:31:23;4.22;;;3.47;;
8009;SDS011;4050;51.160;6.938;2022-07-23T09:34:06;3.80;;;3.28;;
8009;SDS011;4050;51.160;6.938;2022-07-23T09:36:36;6.38;;;4.20;;
8009;SDS011;4050;51.160;6.938;2022-07-23T09:39:04;3.75;;;3.20;;
8009;SDS011;4050;51.160;6.938;2022-07-23T09:41:36;4.53;;;3.25;;
8009;SDS011;4050;51.160;6.938;2022-07-23T09:44:06;4.20;;;3.80;;
8009;SDS011;4050;51.160;6.938;2022-07-23T09:46:36;7.20;;;4.05;;
8009;SDS011;4050;51.160;6.938;2022-07-23T09:49:11;4.53;;;3.53;;
8009;SDS011;4050;51.160;6.938;2022-07-23T09:51:45;3.40;;;3.10;;
8009;SDS011;4050;51.160;6.938;2022-07-23T09:54:25;4.32;;;3.65;;
8009;SDS011;4050;51.160;6.938;2022-07-23T09:56:56;4.13;;;3.72;;
8009;SDS011;4050;51.160;6.938;2022-07-23T09:59:26;4.15;;;3.75;;
8009;SDS011;4050;51.160;6.938;2022-07-23T10:01:55;4.70;;;3.80;;
8009;SDS011;4050;51.160;6.938;2022-07-23T10:04:27;3.97;;;3.67;;
8009;SDS011;4050;51.160;6.938;2022-07-23T10:06:57;3.63;;;3.33;;
8009;SDS011;4050;51.160;6.938;2022-07-23T10:09:28;4.47;;;3.90;;
8009;SDS011;4050;51.160;6.938;2022-07-23T10:11:58;3.85;;;3.55;;
8009;SDS011;4050;51.160;6.938;2022-07-23T10:14:44;4.35;;;3.40;;
8009;SDS011;4050;51.160;6.938;2022-07-23T10:17:11;3.65;;;3.35;;
8009;SDS011;4050;51.160;6.938;2022-07-23T10:19:41;4.15;;;3.80;;
8009;SDS011;4050;51.160;6.938;2022-07-23T10:22:13;4.20;;;3.38;;
8009;SDS011;4050;51.160;6.938;2022-07-23T10:24:48;5.38;;;4.05;;
8009;SDS011;4050;51.160;6.938;2022-07-23T10:27:27;4.20;;;3.80;;
8009;SDS011;4050;51.160;6.938;2022-07-23T10:30:09;4.75;;;4.35;;
8009;SDS011;4050;51.160;6.938;2022-07-23T10:32:43;4.80;;;4.20;;
8009;SDS011;4050;51.160;6.938;2022-07-23T10:35:22;4.68;;;3.72;;
8009;SDS011;4050;51.160;6.938;2022-07-23T10:37:57;3.58;;;3.10;;
8009;SDS011;4050;51.160;6.938;2022-07-23T10:40:36;2.80;;;2.60;;
8009;SDS011;4050;51.160;6.938;2022-07-23T10:43:04;3.17;;;2.85;;
8009;SDS011;4050;51.160;6.938;2022-07-23T10:45:47;5.80;;;3.75;;
8009;SDS011;4050;51.160;6.938;2022-07-23T10:48:16;3.67;;;3.38;;
8009;SDS011;4050;51.160;6.938;2022-07-23T10:53:55;4.75;;;3.20;;
8009;SDS011;4050;51.160;6.938;2022-07-23T10:59:17;4.65;;;4.03;;
8009;SDS011;4050;51.160;6.938;2022-07-23T11:01:45;3.15;;;2.85;;
8009;SDS011;4050;51.160;6.938;2022-07-23T11:04:14;3.80;;;2.22;;
8009;SDS011;4050;51.160;6.938;2022-07-23T11:09:39;3.25;;;2.47;;
8009;SDS011;4050;51.160;6.938;2022-07-23T11:15:06;2.58;;;2.08;;
8009;SDS011;4050;51.160;6.938;2022-07-23T11:17:36;3.40;;;2.55;;
8009;SDS011;4050;51.160;6.938;2022-07-23T11:20:18;2.63;;;1.92;;
8009;SDS011;4050;51.160;6.938;2022-07-23T11:22:50;4.03;;;2.80;;
8009;SDS011;4050;51.160;6.938;2022-07-23T11:25:32;3.00;;;2.70;;
8009;SDS011;4050;51.160;6.938;2022-07-23T11:28:08;3.28;;;2.75;;
8009;SDS011;4050;51.160;6.938;2022-07-23T11:30:38;4.53;;;2.97;;
8009;SDS011;4050;51.160;6.938;2022-07-23T11:33:21;3.03;;;2.40;;
8009;SDS011;4050;51.160;6.938;2022-07-23T11:35:59;3.08;;;2.40;;
8009;SDS011;4050;51.160;6.938;2022-07-23T11:38:31;2.90;;;2.22;;
8009;SDS011;4050;51.160;6.938;2022-07-23T11:40:59;4.18;;;2.00;;
8009;SDS011;4050;51.160;6.938;2022-07-23T11:43:27;2.25;;;1.90;;
8009;SDS011;4050;51.160;6.938;2022-07-23T11:45:57;3.17;;;2.08;;
8009;SDS011;4050;51.160;6.938;2022-07-23T11:48:27;2.53;;;1.77;;
8009;SDS011;4050;51.160;6.938;2022-07-23T11:51:05;4.50;;;2.53;;
8009;SDS011;4050;51.160;6.938;2022-07-23T11:53:34;3.90;;;2.40;;
8009;SDS011;4050;51.160;6.938;2022-07-23T11:56:03;6.70;;;2.42;;
8009;SDS011;4050;51.160;6.938;2022-07-23T11:58:32;2.92;;;2.33;;
8009;SDS011;4050;51.160;6.938;2022-07-23T12:01:00;2.85;;;2.20;;
8009;SDS011;4050;51.160;6.938;2022-07-23T12:03:29;5.10;;;2.70;;
8009;SDS011;4050;51.160;6.938;2022-07-23T12:05:57;3.30;;;2.13;;
8009;SDS011;4050;51.160;6.938;2022-07-23T12:08:26;2.53;;;2.30;;
8009;SDS011;4050;51.160;6.938;2022-07-23T12:10:57;2.65;;;2.30;;
8009;SDS011;4050;51.160;6.938;2022-07-23T12:13:25;4.25;;;2.40;;
8009;SDS011;4050;51.160;6.938;2022-07-23T12:15:56;2.92;;;2.10;;
8009;SDS011;4050;51.160;6.938;2022-07-23T12:18:24;4.35;;;2.03;;
8009;SDS011;4050;51.160;6.938;2022-07-23T12:20:55;4.07;;;2.10;;
8009;SDS011;4050;51.160;6.938;2022-07-23T12:23:25;3.72;;;2.17;;
8009;SDS011;4050;51.160;6.938;2022-07-23T12:25:54;2.40;;;1.85;;
8009;SDS011;4050;51.160;6.938;2022-07-23T12:28:27;3.72;;;1.95;;
8009;SDS011;4050;51.160;6.938;2022-07-23T12:30:57;3.50;;;1.90;;
8009;SDS011;4050;51.160;6.938;2022-07-23T12:33:27;2.42;;;1.33;;
8009;SDS011;4050;51.160;6.938;2022-07-23T12:35:59;5.13;;;2.20;;
8009;SDS011;4050;51.160;6.938;2022-07-23T12:38:36;2.83;;;1.55;;
8009;SDS011;4050;51.160;6.938;2022-07-23T12:41:05;3.47;;;1.70;;
8009;SDS011;4050;51.160;6.938;2022-07-23T12:43:35;3.63;;;2.17;;
8009;SDS011;4050;51.160;6.938;2022-07-23T12:46:05;4.50;;;1.70;;
8009;SDS011;4050;51.160;6.938;2022-07-23T12:48:34;5.05;;;2.28;;
8009;SDS011;4050;51.160;6.938;2022-07-23T12:51:04;3.28;;;1.65;;
8009;SDS011;4050;51.160;6.938;2022-07-23T12:53:36;2.85;;;1.63;;
8009;SDS011;4050;51.160;6.938;2022-07-23T12:56:10;1.70;;;1.30;;
8009;SDS011;4050;51.160;6.938;2022-07-23T12:58:44;2.95;;;1.52;;
8009;SDS011;4050;51.160;6.938;2022-07-23T13:01:24;3.75;;;1.80;;
8009;SDS011;4050;51.160;6.938;2022-07-23T13:03:57;3.75;;;2.90;;
8009;SDS011;4050;51.160;6.938;2022-07-23T13:06:28;3.28;;;2.00;;
8009;SDS011;4050;51.160;6.938;2022-07-23T13:08:57;4.22;;;1.95;;
8009;SDS011;4050;51.160;6.938;2022-07-23T13:11:27;2.85;;;1.95;;
8009;SDS011;4050;51.160;6.938;2022-07-23T13:13:57;2.17;;;1.38;;
8009;SDS011;4050;51.160;6.938;2022-07-23T13:16:34;4.95;;;2.58;;
8009;SDS011;4050;51.160;6.938;2022-07-23T13:19:03;1.88;;;1.45;;
8009;SDS011;4050;51.160;6.938;2022-07-23T13:21:38;3.47;;;2.03;;
8009;SDS011;4050;51.160;6.938;2022-07-23T13:24:07;3.00;;;2.03;;
8009;SDS011;4050;51.160;6.938;2022-07-23T13:26:36;3.50;;;1.80;;
8009;SDS011;4050;51.160;6.938;2022-07-23T13:29:06;3.50;;;1.80;;
8009;SDS011;4050;51.160;6.938;2022-07-23T13:31:36;2.95;;;1.98;;
8009;SDS011;4050;51.160;6.938;2022-07-23T13:34:05;2.88;;;2.13;;
8009;SDS011;4050;51.160;6.938;2022-07-23T13:36:33;3.42;;;2.28;;
8009;SDS011;4050;51.160;6.938;2022-07-23T13:39:02;3.13;;;2.17;;
8009;SDS011;4050;51.160;6.938;2022-07-23T13:41:32;2.97;;;1.87;;
8009;SDS011;4050;51.160;6.938;2022-07-23T13:44:01;2.70;;;1.90;;
8009;SDS011;4050;51.160;6.938;2022-07-23T13:46:55;3.90;;;1.50;;
8009;SDS011;4050;51.160;6.938;2022-07-23T13:49:23;1.40;;;1.30;;
8009;SDS011;4050;51.160;6.938;2022-07-23T13:51:51;1.57;;;1.33;;
8009;SDS011;4050;51.160;6.938;2022-07-23T13:54:22;2.77;;;1.50;;
8009;SDS011;4050;51.160;6.938;2022-07-23T13:56:50;2.80;;;2.00;;
8009;SDS011;4050;51.160;6.938;2022-07-23T13:59:25;2.47;;;1.50;;
8009;SDS011;4050;51.160;6.938;2022-07-23T14:01:57;2.10;;;1.63;;
8009;SDS011;4050;51.160;6.938;2022-07-23T14:04:46;2.37;;;1.30;;
8009;SDS011;4050;51.160;6.938;2022-07-23T14:07:14;2.17;;;1.50;;
8009;SDS011;4050;51.160;6.938;2022-07-23T14:09:42;1.77;;;1.25;;
8009;SDS011;4050;51.160;6.938;2022-07-23T14:12:10;1.58;;;1.33;;
8009;SDS011;4050;51.160;6.938;2022-07-23T14:14:42;2.35;;;1.40;;
8009;SDS011;4050;51.160;6.938;2022-07-23T14:17:12;2.03;;;1.50;;
8009;SDS011;4050;51.160;6.938;2022-07-23T14:19:40;1.33;;;1.17;;
8009;SDS011;4050;51.160;6.938;2022-07-23T14:22:09;1.92;;;1.40;;
8009;SDS011;4050;51.160;6.938;2022-07-23T14:24:38;1.77;;;1.13;;
8009;SDS011;4050;51.160;6.938;2022-07-23T14:27:06;1.75;;;1.30;;
8009;SDS011;4050;51.160;6.938;2022-07-23T14:29:35;2.53;;;1.60;;
8009;SDS011;4050;51.160;6.938;2022-07-23T14:32:03;2.30;;;1.67;;
8009;SDS011;4050;51.160;6.938;2022-07-23T14:34:33;1.55;;;1.25;;
8009;SDS011;4050;51.160;6.938;2022-07-23T14:37:03;2.53;;;1.65;;
8009;SDS011;4050;51.160;6.938;2022-07-23T14:39:31;3.83;;;1.58;;
8009;SDS011;4050;51.160;6.938;2022-07-23T14:42:01;1.38;;;1.27;;
8009;SDS011;4050;51.160;6.938;2022-07-23T14:44:29;2.78;;;1.70;;
8009;SDS011;4050;51.160;6.938;2022-07-23T14:47:03;1.55;;;1.35;;
8009;SDS011;4050;51.160;6.938;2022-07-23T14:49:36;1.52;;;1.40;;
8009;SDS011;4050;51.160;6.938;2022-07-23T14:52:07;2.47;;;1.25;;
8009;SDS011;4050;51.160;6.938;2022-07-23T14:54:36;2.17;;;1.97;;
8009;SDS011;4050;51.160;6.938;2022-07-23T14:57:06;1.38;;;1.13;;
8009;SDS011;4050;51.160;6.938;2022-07-23T14:59:36;1.98;;;1.75;;
8009;SDS011;4050;51.160;6.938;2022-07-23T15:02:04;2.10;;;1.35;;
8009;SDS011;4050;51.160;6.938;2022-07-23T15:04:33;3.23;;;1.73;;
8009;SDS011;4050;51.160;6.938;2022-07-23T15:07:09;2.20;;;1.90;;
8009;SDS011;4050;51.160;6.938;2022-07-23T15:09:37;2.95;;;1.75;;
8009;SDS011;4050;51.160;6.938;2022-07-23T15:12:06;2.15;;;1.60;;
8009;SDS011;4050;51.160;6.938;2022-07-23T15:14:38;3.20;;;1.60;;
8009;SDS011;4050;51.160;6.938;2022-07-23T15:17:06;3.20;;;1.67;;
8009;SDS011;4050;51.160;6.938;2022-07-23T15:19:34;3.17;;;1.17;;
8009;SDS011;4050;51.160;6.938;2022-07-23T15:22:03;2.15;;;1.55;;
8009;SDS011;4050;51.160;6.938;2022-07-23T15:24:35;1.63;;;1.35;;
8009;SDS011;4050;51.160;6.938;2022-07-23T15:27:03;1.65;;;1.35;;
8009;SDS011;4050;51.160;6.938;2022-07-23T15:29:31;2.00;;;1.33;;
8009;SDS011;4050;51.160;6.938;2022-07-23T15:32:00;1.80;;;1.60;;
8009;SDS011;4050;51.160;6.938;2022-07-23T15:34:29;2.63;;;1.30;;